createdAt,value
2023-10-13T00:00:30.852Z,7.72
2023-10-13T00:03:01.254Z,6.13
2023-10-13T00:05:31.865Z,7.35
2023-10-13T00:08:03.867Z,7.30
2023-10-13T00:10:31.585Z,6.75
2023-10-13T00:13:13.933Z,8.23
2023-10-13T00:15:58.719Z,7.30
2023-10-13T00:18:28.593Z,8.05
2023-10-13T00:20:57.564Z,6.43
2023-10-13T00:23:27.857Z,4.72
2023-10-13T00:26:03.342Z,5.80
2023-10-13T00:28:37.096Z,6.35
2023-10-13T00:31:11.723Z,6.32
2023-10-13T00:33:43.061Z,7.47
2023-10-13T00:36:18.240Z,7.45
2023-10-13T00:38:49.182Z,8.25
2023-10-13T00:41:17.879Z,6.13
2023-10-13T00:44:08.374Z,6.20
2023-10-13T00:46:37.071Z,6.53
2023-10-13T00:49:05.728Z,5.22
2023-10-13T00:51:33.754Z,5.95
2023-10-13T00:54:03.812Z,7.50
2023-10-13T00:56:33.801Z,6.60
2023-10-13T00:59:03.519Z,6.60
2023-10-13T01:01:34.009Z,5.43
2023-10-13T01:04:01.682Z,6.13
2023-10-13T01:06:29.294Z,6.50
2023-10-13T01:09:14.296Z,4.80
2023-10-13T01:11:44.046Z,6.75
2023-10-13T01:14:18.636Z,7.40
2023-10-13T01:16:46.937Z,6.88
2023-10-13T01:19:18.072Z,6.35
2023-10-13T01:21:48.641Z,6.78
2023-10-13T01:24:19.732Z,7.13
2023-10-13T01:26:52.298Z,6.07
2023-10-13T01:29:20.236Z,6.97
2023-10-13T01:31:48.191Z,7.20
2023-10-13T01:34:23.726Z,6.13
2023-10-13T01:36:54.863Z,6.80
2023-10-13T01:39:27.473Z,6.47
2023-10-13T01:41:57.462Z,7.10
2023-10-13T01:44:31.746Z,6.78
2023-10-13T01:47:08.151Z,6.55
2023-10-13T01:49:44.123Z,6.88
2023-10-13T01:52:16.828Z,6.03
2023-10-13T01:54:50.008Z,6.65
2023-10-13T01:57:20.035Z,6.35
2023-10-13T01:59:48.849Z,5.85
2023-10-13T02:02:17.409Z,6.53
2023-10-13T02:04:50.238Z,7.10
2023-10-13T02:07:17.693Z,5.93
2023-10-13T02:09:44.663Z,6.75
2023-10-13T02:12:12.064Z,6.63
2023-10-13T02:14:39.048Z,7.38
2023-10-13T02:17:14.888Z,6.82
2023-10-13T02:19:45.811Z,7.00
2023-10-13T02:22:13.422Z,7.07
2023-10-13T02:24:41.221Z,6.85
2023-10-13T02:27:14.048Z,6.45
2023-10-13T02:29:41.728Z,6.10
2023-10-13T02:32:19.666Z,6.35
2023-10-13T02:34:46.766Z,5.47
2023-10-13T02:37:19.908Z,6.25
2023-10-13T02:39:46.597Z,5.03
2023-10-13T02:42:25.219Z,6.05
2023-10-13T02:44:52.354Z,6.97
2023-10-13T02:47:20.862Z,6.43
2023-10-13T02:49:48.881Z,6.05
2023-10-13T02:52:16.265Z,5.53
2023-10-13T02:54:52.448Z,5.78
2023-10-13T02:57:19.339Z,5.57
2023-10-13T02:59:51.735Z,6.28
2023-10-13T03:02:19.011Z,4.65
2023-10-13T03:05:00.189Z,5.07
2023-10-13T03:07:30.556Z,4.97
2023-10-13T03:10:01.370Z,4.90
2023-10-13T03:12:34.465Z,5.43
2023-10-13T03:15:33.503Z,5.90
2023-10-13T03:18:00.224Z,5.05
2023-10-13T03:20:32.829Z,6.30
2023-10-13T03:23:00.304Z,5.07
2023-10-13T03:25:30.783Z,6.82
2023-10-13T03:28:01.387Z,6.90
2023-10-13T03:30:43.364Z,5.75
2023-10-13T03:33:13.045Z,5.10
2023-10-13T03:35:42.669Z,6.03
2023-10-13T03:38:19.640Z,7.43
2023-10-13T03:40:50.924Z,7.72
2023-10-13T03:43:22.751Z,5.57
2023-10-13T03:46:01.856Z,6.07
2023-10-13T03:48:28.937Z,5.25
2023-10-13T03:51:16.069Z,7.20
2023-10-13T03:53:57.432Z,6.25
2023-10-13T03:56:32.395Z,4.97
2023-10-13T03:59:26.867Z,4.93
2023-10-13T04:01:53.678Z,5.13
2023-10-13T04:04:49.664Z,5.00
2023-10-13T04:07:35.352Z,5.38
2023-10-13T04:10:22.836Z,4.80
2023-10-13T04:13:09.435Z,5.80
2023-10-13T04:15:42.185Z,3.45
2023-10-13T04:18:28.780Z,6.72
2023-10-13T04:21:08.730Z,6.25
2023-10-13T04:23:55.335Z,5.03
2023-10-13T04:26:37.152Z,6.78
2023-10-13T04:29:11.490Z,7.32
2023-10-13T04:32:01.170Z,6.07
2023-10-13T04:34:29.684Z,4.35
2023-10-13T04:37:12.659Z,5.20
2023-10-13T04:39:40.819Z,5.30
2023-10-13T04:42:27.385Z,4.78
2023-10-13T04:44:59.905Z,6.32
2023-10-13T04:47:30.364Z,5.28
2023-10-13T04:50:01.696Z,5.55
2023-10-13T04:52:39.654Z,5.47
2023-10-13T04:55:38.101Z,5.57
2023-10-13T04:58:23.760Z,4.47
2023-10-13T05:01:16.434Z,5.53
2023-10-13T05:04:01.727Z,5.63
2023-10-13T05:07:00.336Z,4.82
2023-10-13T05:09:45.607Z,5.65
2023-10-13T05:12:31.033Z,3.75
2023-10-13T05:15:16.325Z,5.47
2023-10-13T05:18:01.859Z,5.00
2023-10-13T05:20:47.317Z,5.97
2023-10-13T05:23:32.632Z,4.00
2023-10-13T05:26:21.698Z,4.60
2023-10-13T05:29:15.252Z,5.82
2023-10-13T05:32:11.485Z,4.13
2023-10-13T05:34:56.812Z,5.53
2023-10-13T05:37:42.443Z,4.95
2023-10-13T05:40:28.464Z,3.78
2023-10-13T05:43:13.959Z,5.03
2023-10-13T05:45:59.336Z,5.13
2023-10-13T05:48:43.452Z,5.00
2023-10-13T05:51:28.947Z,4.63
2023-10-13T05:54:14.387Z,4.85
2023-10-13T05:57:04.463Z,3.63
2023-10-13T05:59:51.287Z,4.85
2023-10-13T06:02:38.690Z,4.50
2023-10-13T06:05:25.475Z,3.05
2023-10-13T06:08:11.656Z,3.35
2023-10-13T06:10:57.683Z,4.43
2023-10-13T06:13:43.183Z,3.10
2023-10-13T06:16:30.338Z,3.92
2023-10-13T06:19:15.612Z,4.10
2023-10-13T06:22:01.797Z,4.15
2023-10-13T06:24:47.878Z,4.13
2023-10-13T06:27:33.930Z,3.55
2023-10-13T06:30:01.981Z,3.83
2023-10-13T06:32:28.758Z,4.28
2023-10-13T06:34:59.297Z,3.78
2023-10-13T06:37:27.211Z,4.40
2023-10-13T06:39:57.674Z,3.55
2023-10-13T06:42:28.176Z,3.40
2023-10-13T06:44:55.907Z,3.75
2023-10-13T06:47:25.793Z,3.28
2023-10-13T06:49:52.585Z,3.53
2023-10-13T06:52:19.358Z,4.10
2023-10-13T06:54:47.466Z,4.57
2023-10-13T06:57:21.426Z,4.85
2023-10-13T06:59:48.953Z,4.03
2023-10-13T07:02:34.782Z,3.88
2023-10-13T07:05:09.008Z,3.97
2023-10-13T07:07:37.972Z,3.72
2023-10-13T07:10:08.956Z,4.13
2023-10-13T07:12:35.613Z,3.63
2023-10-13T07:15:21.089Z,3.80
2023-10-13T07:17:48.970Z,3.47
2023-10-13T07:20:16.506Z,3.33
2023-10-13T07:22:56.068Z,3.20
2023-10-13T07:25:26.616Z,3.03
2023-10-13T07:27:55.114Z,3.28
2023-10-13T07:30:27.490Z,3.25
2023-10-13T07:32:55.891Z,3.28
2023-10-13T07:35:25.839Z,3.47
2023-10-13T07:37:56.627Z,4.18
2023-10-13T07:40:26.709Z,4.25
2023-10-13T07:43:01.958Z,3.58
2023-10-13T07:45:37.150Z,2.95
2023-10-13T07:48:28.609Z,3.30
2023-10-13T07:51:06.739Z,3.97
2023-10-13T07:53:36.601Z,2.88
2023-10-13T07:56:06.141Z,3.75
2023-10-13T07:58:33.513Z,2.30
2023-10-13T08:01:09.982Z,4.00
2023-10-13T08:03:46.310Z,3.22
2023-10-13T08:06:21.529Z,3.80
2023-10-13T08:08:54.578Z,3.65
2023-10-13T08:11:24.244Z,4.28
2023-10-13T08:14:04.303Z,4.07
2023-10-13T08:16:46.579Z,4.20
2023-10-13T08:19:18.283Z,3.55
2023-10-13T08:21:58.585Z,4.45
2023-10-13T08:24:38.662Z,5.50
2023-10-13T08:27:34.894Z,5.80
2023-10-13T08:30:02.491Z,4.72
2023-10-13T08:32:30.388Z,2.80
2023-10-13T08:35:11.209Z,5.18
2023-10-13T08:38:06.295Z,4.60
2023-10-13T08:41:05.282Z,2.70
2023-10-13T08:43:45.308Z,4.57
2023-10-13T08:46:26.400Z,5.38
2023-10-13T08:49:09.917Z,5.10
2023-10-13T08:52:06.157Z,3.72
2023-10-13T08:54:39.914Z,5.32
2023-10-13T08:57:27.008Z,4.75
2023-10-13T08:59:56.473Z,5.85
2023-10-13T09:02:44.235Z,5.20
2023-10-13T09:05:32.476Z,4.28
2023-10-13T09:08:09.995Z,4.65
2023-10-13T09:10:45.865Z,5.95
2023-10-13T09:13:20.359Z,4.65
2023-10-13T09:16:02.763Z,5.55
2023-10-13T09:18:48.791Z,5.43
2023-10-13T09:21:55.161Z,4.40
2023-10-13T09:24:30.935Z,3.47
2023-10-13T09:27:02.621Z,5.50
2023-10-13T09:29:30.145Z,4.38
2023-10-13T09:32:05.062Z,5.57
2023-10-13T09:34:41.739Z,5.35
2023-10-13T09:37:12.190Z,5.60
2023-10-13T09:39:42.946Z,6.18
2023-10-13T09:42:11.459Z,5.20
2023-10-13T09:44:41.532Z,5.38
2023-10-13T09:47:18.563Z,5.00
2023-10-13T09:49:46.829Z,5.53
2023-10-13T09:52:26.860Z,6.38
2023-10-13T09:55:04.187Z,6.43
2023-10-13T09:57:35.914Z,5.43
2023-10-13T10:00:30.338Z,6.40
2023-10-13T10:03:05.160Z,6.45
2023-10-13T10:05:35.746Z,4.90
2023-10-13T10:08:03.140Z,3.80
2023-10-13T10:11:01.921Z,5.57
2023-10-13T10:14:25.953Z,6.32
2023-10-13T10:17:10.701Z,2.70
2023-10-13T10:19:57.821Z,3.97
2023-10-13T10:22:48.994Z,6.68
2023-10-13T10:25:28.306Z,6.57
2023-10-13T10:27:59.330Z,7.00
2023-10-13T10:30:30.376Z,6.75
2023-10-13T10:33:01.096Z,5.00
2023-10-13T10:35:30.934Z,7.55
2023-10-13T10:38:12.429Z,7.07
2023-10-13T10:40:53.499Z,6.45
2023-10-13T10:43:32.821Z,6.43
2023-10-13T10:46:00.757Z,5.60
2023-10-13T10:48:32.787Z,4.43
2023-10-13T10:51:07.855Z,8.00
2023-10-13T10:53:44.633Z,7.05
2023-10-13T10:56:25.577Z,6.03
2023-10-13T10:59:01.022Z,6.60
2023-10-13T11:01:50.083Z,2.40
2023-10-13T11:04:20.033Z,4.43
2023-10-13T11:06:49.188Z,4.22
2023-10-13T11:09:27.982Z,4.90
2023-10-13T11:11:58.100Z,7.18
2023-10-13T11:14:26.818Z,5.60
2023-10-13T11:16:55.302Z,5.85
2023-10-13T11:19:35.944Z,4.55
2023-10-13T11:22:52.112Z,4.30
2023-10-13T11:25:30.837Z,6.57
2023-10-13T11:27:59.896Z,5.50
2023-10-13T11:30:42.305Z,5.25
2023-10-13T11:33:11.299Z,5.88
2023-10-13T11:35:50.432Z,4.85
2023-10-13T11:38:26.650Z,5.28
2023-10-13T11:41:06.995Z,6.40
2023-10-13T11:43:37.330Z,6.93
2023-10-13T11:46:09.792Z,6.32
2023-10-13T11:48:39.610Z,5.53
2023-10-13T11:51:08.633Z,4.95
2023-10-13T11:53:38.686Z,5.72
2023-10-13T11:56:12.266Z,4.60
2023-10-13T11:58:41.309Z,5.05
2023-10-13T12:01:13.693Z,5.75
2023-10-13T12:04:03.044Z,5.07
2023-10-13T12:06:56.711Z,5.85
2023-10-13T12:09:23.286Z,5.55
2023-10-13T12:11:55.429Z,5.40
2023-10-13T12:14:37.764Z,3.80
2023-10-13T12:17:06.212Z,4.45
2023-10-13T12:19:35.926Z,5.20
2023-10-13T12:22:05.737Z,4.72
2023-10-13T12:24:41.451Z,5.47
2023-10-13T12:27:20.782Z,6.20
2023-10-13T12:29:48.358Z,5.68
2023-10-13T12:32:15.754Z,5.35
2023-10-13T12:35:00.983Z,6.78
2023-10-13T12:37:41.297Z,5.68
2023-10-13T12:40:28.329Z,5.15
2023-10-13T12:43:14.584Z,5.00
2023-10-13T12:46:01.041Z,6.10
2023-10-13T12:48:48.618Z,6.28
2023-10-13T12:51:25.018Z,4.40
2023-10-13T12:53:53.207Z,4.38
2023-10-13T12:56:27.356Z,7.13
2023-10-13T12:58:55.119Z,5.20
2023-10-13T13:01:23.723Z,5.75
2023-10-13T13:03:51.262Z,5.25
2023-10-13T13:06:30.440Z,3.83
2023-10-13T13:09:00.925Z,7.30
2023-10-13T13:11:31.074Z,6.10
2023-10-13T13:13:58.180Z,3.30
2023-10-13T13:16:25.270Z,5.43
2023-10-13T13:18:52.359Z,6.38
2023-10-13T13:21:24.163Z,4.82
2023-10-13T13:23:51.637Z,5.85
2023-10-13T13:26:18.758Z,4.50
2023-10-13T13:28:46.637Z,6.40
2023-10-13T13:31:13.468Z,6.75
2023-10-13T13:33:43.318Z,5.38
2023-10-13T13:36:17.667Z,5.35
2023-10-13T13:38:47.854Z,6.20
2023-10-13T13:41:17.869Z,6.07
2023-10-13T13:43:51.562Z,6.72
2023-10-13T13:46:19.304Z,5.80
2023-10-13T13:48:49.603Z,5.85
2023-10-13T13:51:16.817Z,4.45
2023-10-13T13:53:46.853Z,4.95
2023-10-13T13:56:17.253Z,6.90
2023-10-13T13:58:45.549Z,5.30
2023-10-13T14:01:22.867Z,7.00
2023-10-13T14:03:57.601Z,5.93
2023-10-13T14:06:26.103Z,5.97
2023-10-13T14:08:57.939Z,4.22
2023-10-13T14:11:41.221Z,3.97
2023-10-13T14:14:27.889Z,5.25
2023-10-13T14:16:54.850Z,6.03
2023-10-13T14:19:30.531Z,6.85
2023-10-13T14:21:58.059Z,5.63
2023-10-13T14:24:28.748Z,5.32
2023-10-13T14:26:56.874Z,5.88
2023-10-13T14:29:27.353Z,6.03
2023-10-13T14:31:54.096Z,5.28
2023-10-13T14:34:23.423Z,4.47
2023-10-13T14:36:50.270Z,6.38
2023-10-13T14:39:16.933Z,4.57
2023-10-13T14:41:43.671Z,5.90
2023-10-13T14:44:13.802Z,5.53
2023-10-13T14:46:41.057Z,4.65
2023-10-13T14:49:08.175Z,5.13
2023-10-13T14:51:40.493Z,5.43
2023-10-13T14:54:07.274Z,5.50
2023-10-13T14:56:33.930Z,5.88
2023-10-13T14:59:00.642Z,5.68
2023-10-13T15:01:28.024Z,5.55
2023-10-13T15:03:59.214Z,5.70
2023-10-13T15:06:30.096Z,5.60
2023-10-13T15:09:00.835Z,4.45
2023-10-13T15:11:44.105Z,4.20
2023-10-13T15:14:15.807Z,5.65
2023-10-13T15:16:44.169Z,3.85
2023-10-13T15:19:11.366Z,6.45
2023-10-13T15:21:38.020Z,5.15
2023-10-13T15:24:24.732Z,5.53
2023-10-13T15:27:02.798Z,4.72
2023-10-13T15:29:36.794Z,5.35
2023-10-13T15:32:04.226Z,6.28
2023-10-13T15:34:31.802Z,5.15
2023-10-13T15:36:59.995Z,6.03
2023-10-13T15:39:30.022Z,5.65
2023-10-13T15:41:59.830Z,4.38
2023-10-13T15:44:30.895Z,5.05
2023-10-13T15:49:31.027Z,4.28
2023-10-13T15:51:58.876Z,5.22
2023-10-13T15:54:25.710Z,5.07
2023-10-13T15:56:52.665Z,5.63
2023-10-13T15:59:19.358Z,5.93
2023-10-13T16:01:47.864Z,4.47
2023-10-13T16:04:15.276Z,5.50
2023-10-13T16:06:43.014Z,4.88
2023-10-13T16:09:15.025Z,5.30
2023-10-13T16:11:43.433Z,4.90
2023-10-13T16:14:11.801Z,3.60
2023-10-13T16:16:38.724Z,4.40
2023-10-13T16:19:06.003Z,5.78
2023-10-13T16:21:34.658Z,5.68
2023-10-13T16:24:01.585Z,5.30
2023-10-13T16:26:31.375Z,5.10
2023-10-13T16:28:59.634Z,6.55
2023-10-13T16:31:28.931Z,3.65
2023-10-13T16:33:56.168Z,6.00
2023-10-13T16:36:25.974Z,6.07
2023-10-13T16:38:52.761Z,6.40
2023-10-13T16:41:19.589Z,5.57
2023-10-13T16:43:46.721Z,5.03
2023-10-13T16:46:14.116Z,5.80
2023-10-13T16:48:40.974Z,4.40
2023-10-13T16:51:13.893Z,5.20
2023-10-13T16:53:43.320Z,6.40
2023-10-13T16:56:09.979Z,5.03
2023-10-13T16:58:36.585Z,4.57
2023-10-13T17:01:10.091Z,4.95
2023-10-13T17:03:41.037Z,5.50
2023-10-13T17:06:10.612Z,3.65
2023-10-13T17:08:37.696Z,6.13
2023-10-13T17:11:15.346Z,5.30
2023-10-13T17:13:43.990Z,5.97
2023-10-13T17:16:21.202Z,4.85
2023-10-13T17:18:49.790Z,6.07
2023-10-13T17:21:22.898Z,5.53
2023-10-13T17:23:53.705Z,5.65
2023-10-13T17:26:23.895Z,3.80
2023-10-13T17:28:51.064Z,5.88
2023-10-13T17:31:17.968Z,5.80
2023-10-13T17:33:46.774Z,3.25
2023-10-13T17:36:13.433Z,5.20
2023-10-13T17:38:40.372Z,4.82
2023-10-13T17:41:11.885Z,5.60
2023-10-13T17:43:38.910Z,4.03
2023-10-13T17:46:09.484Z,5.22
2023-10-13T17:48:37.241Z,5.95
2023-10-13T17:51:11.429Z,6.10
2023-10-13T17:53:39.213Z,5.88
2023-10-13T17:56:14.071Z,6.30
2023-10-13T17:58:44.484Z,5.85
2023-10-13T18:01:20.115Z,5.57
2023-10-13T18:03:50.031Z,5.20
2023-10-13T18:06:17.576Z,5.22
2023-10-13T18:08:44.955Z,4.68
2023-10-13T18:11:14.795Z,4.88
2023-10-13T18:13:43.152Z,5.57
2023-10-13T18:16:15.259Z,5.85
2023-10-13T18:18:43.101Z,5.95
2023-10-13T18:21:11.212Z,4.90
2023-10-13T18:23:41.189Z,5.75
2023-10-13T18:26:08.285Z,4.60
2023-10-13T18:28:36.946Z,4.35
2023-10-13T18:31:05.521Z,5.15
2023-10-13T18:33:35.793Z,6.00
2023-10-13T18:36:15.796Z,4.93
2023-10-13T18:38:44.416Z,6.93
2023-10-13T18:41:12.537Z,4.85
2023-10-13T18:43:46.264Z,6.47
2023-10-13T18:46:13.762Z,5.05
2023-10-13T18:48:44.655Z,7.03
2023-10-13T18:51:16.399Z,6.13
2023-10-13T18:53:45.286Z,8.43
2023-10-13T18:56:17.266Z,5.47
2023-10-13T18:58:55.006Z,7.50
2023-10-13T19:01:26.865Z,7.75
2023-10-13T19:04:00.570Z,8.75
2023-10-13T19:06:31.694Z,9.27
2023-10-13T19:08:58.916Z,8.75
2023-10-13T19:11:25.904Z,8.65
2023-10-13T19:13:53.501Z,7.88
2023-10-13T19:16:26.987Z,8.50
2023-10-13T19:19:00.176Z,8.05
2023-10-13T19:21:28.417Z,7.03
2023-10-13T19:23:55.370Z,7.53
2023-10-13T19:26:27.980Z,6.15
2023-10-13T19:28:56.570Z,8.32
2023-10-13T19:31:31.284Z,5.25
2023-10-13T19:34:05.978Z,7.07
2023-10-13T19:36:33.705Z,7.45
2023-10-13T19:39:08.882Z,5.22
2023-10-13T19:41:36.476Z,7.32
2023-10-13T19:44:04.374Z,6.45
2023-10-13T19:46:33.135Z,4.80
2023-10-13T19:49:04.414Z,6.95
2023-10-13T19:51:31.883Z,7.55
2023-10-13T19:54:06.324Z,8.35
2023-10-13T19:56:33.546Z,7.72
2023-10-13T19:59:03.724Z,6.70
2023-10-13T20:01:34.544Z,7.93
2023-10-13T20:04:02.531Z,8.18
2023-10-13T20:06:30.498Z,8.77
2023-10-13T20:09:24.357Z,8.68
2023-10-13T20:11:52.260Z,6.63
2023-10-13T20:14:22.393Z,8.70
2023-10-13T20:16:49.947Z,7.38
2023-10-13T20:19:19.443Z,5.97
2023-10-13T20:21:46.263Z,6.60
2023-10-13T20:24:14.837Z,6.50
2023-10-13T20:26:46.496Z,6.70
2023-10-13T20:29:17.747Z,6.03
2023-10-13T20:31:49.339Z,6.38
2023-10-13T20:34:20.378Z,5.30
2023-10-13T20:36:47.211Z,7.07
2023-10-13T20:39:34.264Z,6.30
2023-10-13T20:42:08.663Z,5.68
2023-10-13T20:44:38.948Z,6.45
2023-10-13T20:47:11.736Z,6.13
2023-10-13T20:49:39.725Z,6.97
2023-10-13T20:52:08.239Z,6.30
2023-10-13T20:54:35.327Z,7.20
2023-10-13T20:57:02.093Z,7.05
2023-10-13T20:59:28.858Z,6.80
2023-10-13T21:01:58.291Z,7.28
2023-10-13T21:04:25.320Z,6.38
2023-10-13T21:06:52.293Z,6.32
2023-10-13T21:09:22.337Z,6.50
2023-10-13T21:11:49.577Z,6.97
2023-10-13T21:14:16.287Z,7.03
2023-10-13T21:16:43.573Z,6.82
2023-10-13T21:19:11.038Z,6.10
2023-10-13T21:21:38.693Z,6.03
2023-10-13T21:24:10.733Z,5.60
2023-10-13T21:26:37.590Z,4.78
2023-10-13T21:29:08.810Z,5.75
2023-10-13T21:31:38.904Z,6.03
2023-10-13T21:34:08.796Z,6.72
2023-10-13T21:36:38.543Z,7.38
2023-10-13T21:39:05.795Z,7.03
2023-10-13T21:41:37.961Z,7.55
2023-10-13T21:44:05.072Z,5.80
2023-10-13T21:46:31.789Z,7.00
2023-10-13T21:49:05.626Z,7.15
2023-10-13T21:51:33.842Z,7.50
2023-10-13T21:54:00.555Z,7.38
2023-10-13T21:56:30.820Z,7.13
2023-10-13T21:58:58.299Z,5.70
2023-10-13T22:01:30.687Z,7.78
2023-10-13T22:04:10.248Z,5.50
2023-10-13T22:06:41.210Z,6.68
2023-10-13T22:09:19.467Z,7.70
2023-10-13T22:11:46.369Z,7.65
2023-10-13T22:14:17.259Z,7.20
2023-10-13T22:16:43.948Z,8.43
2023-10-13T22:19:10.812Z,9.07
2023-10-13T22:21:38.400Z,8.23
2023-10-13T22:24:05.370Z,9.07
2023-10-13T22:26:31.988Z,6.97
2023-10-13T22:28:59.115Z,8.80
2023-10-13T22:31:26.337Z,8.40
2023-10-13T22:33:54.160Z,8.75
2023-10-13T22:36:23.002Z,8.45
2023-10-13T22:38:59.263Z,6.57
2023-10-13T22:41:29.031Z,6.90
2023-10-13T22:43:55.716Z,7.47
2023-10-13T22:46:22.629Z,8.48
2023-10-13T22:48:50.366Z,7.38
2023-10-13T22:51:17.947Z,8.50
2023-10-13T22:53:47.936Z,11.02
2023-10-13T22:56:18.659Z,6.85
2023-10-13T22:58:46.117Z,9.48
2023-10-13T23:01:18.174Z,9.50
2023-10-13T23:03:56.184Z,9.25
2023-10-13T23:06:31.410Z,9.10
2023-10-13T23:09:09.624Z,9.60
2023-10-13T23:11:39.454Z,10.15
2023-10-13T23:14:06.155Z,9.85
2023-10-13T23:16:33.589Z,10.48
2023-10-13T23:19:00.387Z,8.32
2023-10-13T23:21:27.579Z,10.07
2023-10-13T23:23:55.593Z,8.80
2023-10-13T23:26:23.613Z,9.82
2023-10-13T23:28:54.461Z,9.38
2023-10-13T23:31:24.191Z,10.52
2023-10-13T23:33:51.232Z,10.40
2023-10-13T23:36:18.173Z,10.45
2023-10-13T23:39:10.053Z,6.80
2023-10-13T23:41:41.819Z,8.85
2023-10-13T23:44:14.469Z,9.68
2023-10-13T23:46:45.149Z,9.90
2023-10-13T23:49:16.737Z,10.43
2023-10-13T23:51:50.620Z,10.35
2023-10-13T23:54:20.662Z,10.57
2023-10-13T23:56:52.425Z,10.45
2023-10-13T23:59:29.008Z,9.77
